Time;durP1;ratioP1;P1;durP2;ratioP2;P2;SDS_P1;SDS_P2;PMS_P1;PMS_P2;Temp;Humidity;BMP_temperature;BMP_pressure;BME280_temperature;BME280_humidity;BME280_pressure;Samples;Min_cycle;Max_cycle;Signal;HPM_P1;HPM_P2
2023/12/12 00:01:06;;;;;;;13.50;3.63;;;;;;;;;;4911146;29;20220;-75
2023/12/12 00:03:34;;;;;;;7.03;3.80;;;;;;;;;;4905179;29;20197;-75
2023/12/12 00:06:00;;;;;;;10.53;3.40;;;;;;;;;;4908532;29;20338;-75
2023/12/12 00:08:25;;;;;;;5.53;3.13;;;;;;;;;;4904914;29;20266;-75
2023/12/12 00:10:50;;;;;;;6.87;2.63;;;;;;;;;;4913146;29;20184;-75
2023/12/12 00:13:15;;;;;;;9.17;3.07;;;;;;;;;;4919600;29;20448;-74
2023/12/12 00:15:40;;;;;;;5.43;2.70;;;;;;;;;;4911654;29;20171;-75
2023/12/12 00:18:06;;;;;;;9.07;2.57;;;;;;;;;;4912264;29;20215;-75
2023/12/12 00:20:32;;;;;;;17.03;2.93;;;;;;;;;;4911722;29;20186;-75
2023/12/12 00:22:57;;;;;;;10.27;2.87;;;;;;;;;;4914082;29;20198;-75
2023/12/12 00:25:22;;;;;;;8.03;2.60;;;;;;;;;;4912686;29;20183;-75
2023/12/12 00:27:47;;;;;;;7.67;2.47;;;;;;;;;;4914382;29;20175;-74
2023/12/12 00:30:13;;;;;;;11.67;2.63;;;;;;;;;;4914599;29;20210;-75
2023/12/12 00:32:38;;;;;;;7.20;2.20;;;;;;;;;;4914088;29;20192;-75
2023/12/12 00:35:03;;;;;;;4.60;2.20;;;;;;;;;;4911400;29;20190;-75
2023/12/12 00:37:28;;;;;;;9.33;2.27;;;;;;;;;;4914932;29;20210;-75
2023/12/12 00:39:54;;;;;;;7.90;2.80;;;;;;;;;;4914419;29;20190;-74
2023/12/12 00:42:19;;;;;;;4.80;2.17;;;;;;;;;;4913132;29;20195;-75
2023/12/12 00:44:44;;;;;;;6.80;2.37;;;;;;;;;;4913345;29;20217;-74
2023/12/12 00:47:09;;;;;;;9.70;2.73;;;;;;;;;;4916794;29;20252;-75
2023/12/12 00:49:34;;;;;;;5.87;2.03;;;;;;;;;;4917118;29;21206;-75
2023/12/12 00:52:01;;;;;;;5.07;2.53;;;;;;;;;;4916739;29;20183;-74
2023/12/12 00:54:26;;;;;;;10.07;2.70;;;;;;;;;;4916456;29;20229;-74
2023/12/12 00:56:51;;;;;;;7.47;3.53;;;;;;;;;;4912357;29;20178;-75
2023/12/12 00:59:16;;;;;;;7.57;3.17;;;;;;;;;;4910376;29;20183;-74
2023/12/12 01:01:41;;;;;;;11.10;2.93;;;;;;;;;;4916654;29;20261;-75
2023/12/12 01:04:10;;;;;;;8.53;2.53;;;;;;;;;;4912934;29;20183;-75
2023/12/12 01:06:35;;;;;;;7.03;2.30;;;;;;;;;;4912622;29;20182;-74
2023/12/12 01:09:00;;;;;;;6.90;1.90;;;;;;;;;;4912617;29;20178;-74
2023/12/12 01:11:25;;;;;;;8.00;2.03;;;;;;;;;;4913383;29;20237;-75
2023/12/12 01:13:50;;;;;;;9.73;2.27;;;;;;;;;;4910853;29;20187;-74
2023/12/12 01:16:16;;;;;;;5.00;2.37;;;;;;;;;;4913598;29;20372;-75
2023/12/12 01:18:41;;;;;;;4.80;1.90;;;;;;;;;;4910691;29;20174;-75
2023/12/12 01:21:06;;;;;;;7.00;1.80;;;;;;;;;;4911715;29;20576;-75
2023/12/12 01:23:50;;;;;;;7.13;1.80;;;;;;;;;;4910168;29;20194;-75
2023/12/12 01:26:15;;;;;;;4.57;1.87;;;;;;;;;;4918283;29;20417;-74
2023/12/12 01:28:40;;;;;;;6.83;2.73;;;;;;;;;;4910574;29;20181;-75
2023/12/12 01:31:05;;;;;;;5.10;1.83;;;;;;;;;;4912397;29;20174;-75
2023/12/12 01:33:31;;;;;;;3.93;1.80;;;;;;;;;;4909521;29;20236;-74
2023/12/12 01:35:56;;;;;;;3.23;2.00;;;;;;;;;;4913128;29;20181;-75
2023/12/12 01:38:21;;;;;;;5.03;1.63;;;;;;;;;;4909225;29;20244;-75
2023/12/12 01:40:47;;;;;;;2.00;1.60;;;;;;;;;;4904520;29;20179;-75
2023/12/12 01:43:21;;;;;;;6.97;2.47;;;;;;;;;;4909088;29;20296;-75
2023/12/12 01:45:46;;;;;;;1.87;1.53;;;;;;;;;;4906066;29;20187;-75
2023/12/12 01:48:12;;;;;;;6.43;2.33;;;;;;;;;;4909239;29;20185;-74
2023/12/12 01:50:37;;;;;;;4.63;1.67;;;;;;;;;;4912749;29;20171;-75
2023/12/12 01:53:02;;;;;;;5.23;1.70;;;;;;;;;;4903558;29;20224;-75
2023/12/12 01:55:27;;;;;;;5.80;1.83;;;;;;;;;;4906182;29;20229;-75
2023/12/12 01:57:53;;;;;;;5.47;2.00;;;;;;;;;;4909200;29;20179;-75
2023/12/12 02:00:18;;;;;;;3.60;2.10;;;;;;;;;;4911787;29;20208;-75
2023/12/12 02:02:43;;;;;;;4.87;2.23;;;;;;;;;;4913446;29;20205;-74
2023/12/12 02:05:08;;;;;;;8.47;3.13;;;;;;;;;;4908298;29;20191;-75
2023/12/12 02:07:34;;;;;;;8.63;2.33;;;;;;;;;;4910825;29;20218;-75
2023/12/12 02:09:59;;;;;;;6.93;2.23;;;;;;;;;;4905470;29;20186;-75
2023/12/12 02:12:25;;;;;;;7.13;2.50;;;;;;;;;;4906030;29;20187;-75
2023/12/12 02:14:50;;;;;;;7.27;2.63;;;;;;;;;;4918201;29;20182;-75
2023/12/12 02:17:15;;;;;;;9.43;2.80;;;;;;;;;;4912649;29;20261;-75
2023/12/12 02:19:41;;;;;;;3.93;1.70;;;;;;;;;;4909988;29;20190;-75
2023/12/12 02:22:06;;;;;;;5.53;2.00;;;;;;;;;;4910724;29;20194;-74
2023/12/12 02:24:31;;;;;;;2.87;1.97;;;;;;;;;;4904629;29;20178;-74
2023/12/12 02:26:56;;;;;;;9.87;3.70;;;;;;;;;;4912526;29;20185;-75
2023/12/12 02:29:22;;;;;;;4.23;1.50;;;;;;;;;;4907936;29;20180;-75
2023/12/12 02:31:47;;;;;;;4.80;1.77;;;;;;;;;;4908009;29;20303;-75
2023/12/12 02:34:12;;;;;;;6.47;2.20;;;;;;;;;;4906700;29;20184;-74
2023/12/12 02:36:37;;;;;;;5.63;2.27;;;;;;;;;;4909738;29;20185;-74
2023/12/12 02:39:03;;;;;;;5.57;1.80;;;;;;;;;;4909998;29;20178;-75
2023/12/12 02:41:28;;;;;;;7.97;3.10;;;;;;;;;;4916013;29;20181;-74
2023/12/12 02:43:53;;;;;;;8.43;2.33;;;;;;;;;;4909667;29;20496;-74
2023/12/12 02:46:19;;;;;;;5.03;2.03;;;;;;;;;;4910773;29;20490;-75
2023/12/12 02:48:44;;;;;;;5.23;1.80;;;;;;;;;;4909934;29;20182;-76
2023/12/12 02:51:09;;;;;;;5.53;1.77;;;;;;;;;;4911613;29;20206;-75
2023/12/12 02:53:34;;;;;;;7.67;2.10;;;;;;;;;;4914681;29;20204;-74
2023/12/12 02:55:59;;;;;;;8.27;2.87;;;;;;;;;;4911078;29;20188;-75
2023/12/12 02:58:24;;;;;;;5.63;2.00;;;;;;;;;;4917374;29;20213;-74
2023/12/12 03:00:50;;;;;;;6.27;1.97;;;;;;;;;;4913158;29;20229;-75
2023/12/12 03:03:16;;;;;;;5.93;2.07;;;;;;;;;;4916786;29;20260;-75
2023/12/12 03:05:41;;;;;;;3.87;1.90;;;;;;;;;;4908634;29;20202;-74
2023/12/12 03:08:06;;;;;;;4.83;2.50;;;;;;;;;;4910859;29;20198;-74
2023/12/12 03:10:31;;;;;;;3.13;1.80;;;;;;;;;;4913293;29;20192;-75
2023/12/12 03:12:57;;;;;;;3.53;1.80;;;;;;;;;;4908229;29;20186;-74
2023/12/12 03:15:22;;;;;;;4.30;1.90;;;;;;;;;;4911847;29;20259;-75
2023/12/12 03:17:47;;;;;;;5.23;2.13;;;;;;;;;;4913846;29;20206;-75
2023/12/12 03:20:12;;;;;;;6.30;1.93;;;;;;;;;;4910347;29;20233;-75
2023/12/12 03:22:37;;;;;;;3.30;2.23;;;;;;;;;;4909098;29;20207;-74
2023/12/12 03:25:04;;;;;;;3.53;1.50;;;;;;;;;;4909949;29;20183;-74
2023/12/12 03:27:29;;;;;;;4.87;1.93;;;;;;;;;;4912851;29;20185;-74
2023/12/12 03:29:54;;;;;;;4.80;1.60;;;;;;;;;;4909470;29;20191;-75
2023/12/12 03:32:19;;;;;;;3.77;1.60;;;;;;;;;;4907972;29;20174;-75
2023/12/12 03:34:45;;;;;;;2.63;2.10;;;;;;;;;;4908711;29;20194;-75
2023/12/12 03:37:10;;;;;;;2.67;1.50;;;;;;;;;;4906793;29;20198;-75
2023/12/12 03:39:37;;;;;;;6.00;1.80;;;;;;;;;;4911641;29;20186;-74
2023/12/12 03:42:02;;;;;;;4.87;1.63;;;;;;;;;;4911855;29;20215;-75
2023/12/12 03:44:28;;;;;;;3.53;1.80;;;;;;;;;;4911603;29;20178;-74
2023/12/12 03:46:53;;;;;;;3.30;1.67;;;;;;;;;;4916511;29;20166;-74
2023/12/12 03:49:20;;;;;;;1.77;1.60;;;;;;;;;;4915369;29;20245;-74
2023/12/12 03:51:46;;;;;;;2.13;1.50;;;;;;;;;;4915553;29;20230;-75
2023/12/12 03:54:11;;;;;;;3.63;1.70;;;;;;;;;;4916104;29;20248;-75
2023/12/12 03:56:36;;;;;;;2.87;1.70;;;;;;;;;;4914441;29;20186;-74
2023/12/12 03:59:01;;;;;;;4.13;1.63;;;;;;;;;;4916683;29;20489;-75
2023/12/12 04:01:26;;;;;;;1.93;1.60;;;;;;;;;;4916778;29;20187;-75
2023/12/12 04:03:52;;;;;;;2.33;1.50;;;;;;;;;;4917717;29;20204;-75
2023/12/12 04:06:17;;;;;;;2.17;1.47;;;;;;;;;;4910595;29;20166;-77
2023/12/12 04:08:42;;;;;;;4.63;1.50;;;;;;;;;;4914492;29;20471;-74
2023/12/12 04:11:07;;;;;;;3.23;1.80;;;;;;;;;;4912570;29;20177;-75
2023/12/12 04:13:33;;;;;;;7.00;2.00;;;;;;;;;;4911858;29;20182;-75
2023/12/12 04:15:58;;;;;;;3.63;1.87;;;;;;;;;;4908292;29;20192;-74
2023/12/12 04:18:23;;;;;;;3.13;1.87;;;;;;;;;;4913794;29;20184;-75
2023/12/12 04:20:48;;;;;;;4.13;1.40;;;;;;;;;;4913297;29;20216;-75
2023/12/12 04:23:13;;;;;;;5.73;1.53;;;;;;;;;;4913363;29;20209;-75
2023/12/12 04:25:39;;;;;;;2.40;1.57;;;;;;;;;;4912648;29;20177;-74
2023/12/12 04:28:04;;;;;;;3.93;1.33;;;;;;;;;;4910784;29;20639;-74
2023/12/12 04:30:29;;;;;;;1.50;1.40;;;;;;;;;;4909795;29;20186;-75
2023/12/12 04:32:54;;;;;;;4.03;1.50;;;;;;;;;;4909738;29;20189;-76
2023/12/12 04:35:20;;;;;;;1.63;1.50;;;;;;;;;;4910919;29;20202;-75
2023/12/12 04:37:45;;;;;;;2.80;1.33;;;;;;;;;;4912321;29;20193;-75
2023/12/12 04:40:11;;;;;;;5.43;1.93;;;;;;;;;;4913096;29;20216;-74
2023/12/12 04:42:36;;;;;;;3.50;1.73;;;;;;;;;;4911757;29;20203;-75
2023/12/12 04:45:01;;;;;;;5.73;1.73;;;;;;;;;;4908502;29;20178;-75
2023/12/12 04:47:26;;;;;;;3.83;2.77;;;;;;;;;;4905810;29;20193;-77
2023/12/12 04:49:51;;;;;;;2.27;1.70;;;;;;;;;;4911574;29;20175;-77
2023/12/12 04:52:17;;;;;;;2.63;1.67;;;;;;;;;;4909511;29;20249;-77
2023/12/12 04:54:42;;;;;;;3.53;1.90;;;;;;;;;;4910177;29;20277;-77
2023/12/12 04:57:07;;;;;;;1.97;1.70;;;;;;;;;;4910256;29;20185;-74
2023/12/12 04:59:32;;;;;;;3.50;1.97;;;;;;;;;;4910054;29;20180;-74
2023/12/12 05:01:58;;;;;;;1.80;1.50;;;;;;;;;;4909298;29;20329;-74
2023/12/12 05:04:23;;;;;;;3.97;2.10;;;;;;;;;;4910703;29;20180;-74
2023/12/12 05:06:48;;;;;;;3.90;2.77;;;;;;;;;;4903695;29;20183;-76
2023/12/12 05:09:14;;;;;;;7.87;1.80;;;;;;;;;;4901496;29;20217;-77
2023/12/12 05:11:39;;;;;;;2.47;1.80;;;;;;;;;;4903044;29;20231;-76
2023/12/12 05:14:06;;;;;;;3.60;2.07;;;;;;;;;;4909330;29;20184;-77
2023/12/12 05:16:31;;;;;;;4.93;2.13;;;;;;;;;;4909161;29;20270;-76
2023/12/12 05:18:56;;;;;;;4.87;2.47;;;;;;;;;;4912535;29;20269;-76
2023/12/12 05:21:21;;;;;;;2.10;1.70;;;;;;;;;;4906635;29;20180;-77
2023/12/12 05:23:50;;;;;;;2.67;1.70;;;;;;;;;;4911503;29;20205;-74
2023/12/12 05:26:18;;;;;;;2.87;1.57;;;;;;;;;;4905982;29;20186;-76
2023/12/12 05:28:43;;;;;;;2.17;1.90;;;;;;;;;;4910561;29;20198;-77
2023/12/12 05:31:08;;;;;;;3.43;2.20;;;;;;;;;;4905037;29;20344;-75
2023/12/12 05:33:33;;;;;;;2.20;1.73;;;;;;;;;;4906278;29;20253;-75
2023/12/12 05:35:58;;;;;;;2.87;1.63;;;;;;;;;;4907623;29;20188;-75
2023/12/12 05:38:24;;;;;;;1.70;1.50;;;;;;;;;;4911966;29;20182;-75
2023/12/12 05:40:49;;;;;;;2.57;1.80;;;;;;;;;;4911350;29;20245;-77
2023/12/12 05:43:14;;;;;;;2.73;1.87;;;;;;;;;;4912198;29;20201;-74
2023/12/12 05:45:39;;;;;;;4.00;2.50;;;;;;;;;;4912840;29;20177;-74
2023/12/12 05:48:05;;;;;;;3.20;1.73;;;;;;;;;;4905666;29;20175;-74
2023/12/12 05:50:30;;;;;;;3.07;1.80;;;;;;;;;;4913608;29;20224;-75
2023/12/12 05:52:55;;;;;;;3.13;2.10;;;;;;;;;;4913136;29;20278;-77
2023/12/12 05:55:21;;;;;;;2.13;1.50;;;;;;;;;;4907932;29;20261;-77
2023/12/12 05:57:46;;;;;;;3.80;2.23;;;;;;;;;;4907453;29;20194;-74
2023/12/12 06:00:11;;;;;;;3.57;1.37;;;;;;;;;;4913864;29;20214;-77
2023/12/12 06:02:36;;;;;;;4.03;2.83;;;;;;;;;;4911536;29;20291;-76
2023/12/12 06:05:07;;;;;;;3.17;1.93;;;;;;;;;;4903891;29;20215;-76
2023/12/12 06:07:32;;;;;;;7.70;4.87;;;;;;;;;;4908178;29;20231;-75
2023/12/12 06:09:57;;;;;;;2.83;1.80;;;;;;;;;;4901995;29;20179;-75
2023/12/12 06:12:24;;;;;;;10.53;5.17;;;;;;;;;;4903100;29;20212;-75
2023/12/12 06:14:49;;;;;;;7.87;4.50;;;;;;;;;;4907493;29;20222;-77
2023/12/12 06:17:15;;;;;;;2.47;2.27;;;;;;;;;;4909503;29;20185;-75
2023/12/12 06:19:40;;;;;;;2.50;2.23;;;;;;;;;;4912731;29;20173;-77
2023/12/12 06:22:06;;;;;;;3.97;2.47;;;;;;;;;;4906675;29;20228;-75
2023/12/12 06:24:32;;;;;;;6.33;4.67;;;;;;;;;;4903358;29;20209;-75
2023/12/12 06:26:57;;;;;;;8.13;6.23;;;;;;;;;;4910398;29;20239;-77
2023/12/12 06:29:23;;;;;;;4.00;3.00;;;;;;;;;;4909495;29;20209;-75
2023/12/12 06:31:48;;;;;;;4.20;2.47;;;;;;;;;;4906176;29;20261;-77
2023/12/12 06:34:13;;;;;;;4.90;3.17;;;;;;;;;;4911207;29;20193;-77
2023/12/12 06:36:38;;;;;;;17.23;6.97;;;;;;;;;;4903533;29;20178;-77
2023/12/12 06:39:04;;;;;;;9.50;7.97;;;;;;;;;;4909431;29;20178;-75
2023/12/12 06:41:29;;;;;;;8.60;4.67;;;;;;;;;;4904913;29;20176;-75
2023/12/12 06:43:54;;;;;;;8.33;3.90;;;;;;;;;;4910447;29;20191;-75
2023/12/12 06:46:19;;;;;;;4.10;3.50;;;;;;;;;;4910290;29;20188;-77
2023/12/12 06:48:45;;;;;;;6.90;3.60;;;;;;;;;;4910723;29;20189;-77
2023/12/12 06:51:10;;;;;;;3.13;2.83;;;;;;;;;;4911353;29;20206;-75
2023/12/12 06:53:35;;;;;;;4.90;3.10;;;;;;;;;;4912499;29;20277;-77
2023/12/12 06:56:01;;;;;;;6.87;5.70;;;;;;;;;;4909134;29;20183;-75
2023/12/12 06:58:26;;;;;;;5.20;2.80;;;;;;;;;;4909275;29;20178;-76
2023/12/12 07:00:51;;;;;;;6.50;4.03;;;;;;;;;;4913077;29;20190;-77
2023/12/12 07:03:18;;;;;;;4.13;3.57;;;;;;;;;;4906837;29;20319;-77
2023/12/12 07:05:43;;;;;;;5.63;4.20;;;;;;;;;;4911588;29;20240;-75
2023/12/12 07:08:08;;;;;;;5.87;4.77;;;;;;;;;;4910506;29;20280;-75
2023/12/12 07:10:33;;;;;;;4.97;3.70;;;;;;;;;;4911468;29;20184;-75
2023/12/12 07:12:59;;;;;;;6.37;4.00;;;;;;;;;;4912670;29;20253;-75
2023/12/12 07:15:25;;;;;;;5.63;4.90;;;;;;;;;;4908905;29;20178;-75
2023/12/12 07:17:50;;;;;;;8.33;5.27;;;;;;;;;;4910783;29;20182;-78
2023/12/12 07:20:16;;;;;;;8.23;5.93;;;;;;;;;;4909149;29;20186;-77
2023/12/12 07:22:41;;;;;;;10.10;6.63;;;;;;;;;;4908965;29;20294;-77
2023/12/12 07:25:08;;;;;;;8.00;5.77;;;;;;;;;;4908725;29;20171;-77
2023/12/12 07:27:33;;;;;;;6.33;5.67;;;;;;;;;;4911629;29;20192;-77
2023/12/12 07:29:58;;;;;;;8.87;5.80;;;;;;;;;;4908435;29;20189;-77
2023/12/12 07:32:26;;;;;;;7.97;5.67;;;;;;;;;;4906378;29;20181;-75
2023/12/12 07:34:51;;;;;;;7.77;5.83;;;;;;;;;;4907570;29;20424;-75
2023/12/12 07:37:17;;;;;;;9.60;6.47;;;;;;;;;;4908271;29;20192;-75
2023/12/12 07:39:42;;;;;;;7.63;6.00;;;;;;;;;;4909931;29;20192;-77
2023/12/12 07:42:08;;;;;;;10.37;6.63;;;;;;;;;;4909026;29;20209;-75
2023/12/12 07:44:33;;;;;;;13.10;6.37;;;;;;;;;;4910651;29;20180;-77
2023/12/12 07:47:01;;;;;;;9.70;5.70;;;;;;;;;;4908035;29;20273;-77
2023/12/12 07:49:27;;;;;;;7.10;5.70;;;;;;;;;;4899927;29;20211;-75
2023/12/12 07:51:52;;;;;;;6.97;5.43;;;;;;;;;;4906093;29;20213;-75
2023/12/12 07:54:17;;;;;;;9.03;5.17;;;;;;;;;;4909871;29;20223;-77
2023/12/12 07:56:42;;;;;;;7.07;5.40;;;;;;;;;;4908839;29;20185;-75
2023/12/12 07:59:08;;;;;;;6.37;5.10;;;;;;;;;;4905726;29;20293;-77
2023/12/12 08:01:33;;;;;;;8.93;6.20;;;;;;;;;;4907821;29;20246;-77
2023/12/12 08:03:58;;;;;;;13.23;9.60;;;;;;;;;;4910130;29;20197;-75
2023/12/12 08:06:24;;;;;;;9.07;6.40;;;;;;;;;;4910465;29;20178;-77
2023/12/12 08:08:49;;;;;;;5.90;4.73;;;;;;;;;;4910805;29;20183;-75
2023/12/12 08:11:15;;;;;;;9.17;6.17;;;;;;;;;;4905348;29;20269;-77
2023/12/12 08:13:40;;;;;;;8.87;4.33;;;;;;;;;;4910709;29;20188;-75
2023/12/12 08:16:05;;;;;;;9.57;6.53;;;;;;;;;;4910205;29;20186;-74
2023/12/12 08:18:31;;;;;;;5.10;4.60;;;;;;;;;;4909398;29;20182;-77
2023/12/12 08:20:57;;;;;;;7.40;5.83;;;;;;;;;;4906679;29;20213;-75
2023/12/12 08:23:22;;;;;;;7.17;5.07;;;;;;;;;;4909924;29;20340;-77
2023/12/12 08:25:47;;;;;;;6.47;4.30;;;;;;;;;;4911924;29;20183;-75
2023/12/12 08:28:13;;;;;;;7.10;5.10;;;;;;;;;;4900554;29;20189;-75
2023/12/12 08:30:38;;;;;;;11.33;6.90;;;;;;;;;;4904018;29;20175;-77
2023/12/12 08:33:04;;;;;;;8.07;5.80;;;;;;;;;;4909421;29;20189;-77
2023/12/12 08:35:29;;;;;;;14.77;10.33;;;;;;;;;;4912450;29;20259;-77
2023/12/12 08:37:54;;;;;;;8.07;6.27;;;;;;;;;;4909490;29;20175;-77
2023/12/12 08:40:20;;;;;;;9.97;6.40;;;;;;;;;;4913109;29;20186;-75
2023/12/12 08:42:45;;;;;;;7.87;5.37;;;;;;;;;;4914337;29;20191;-74
2023/12/12 08:45:10;;;;;;;10.43;6.13;;;;;;;;;;4914915;29;20185;-77
2023/12/12 08:47:36;;;;;;;8.23;5.23;;;;;;;;;;4911824;29;20206;-75
2023/12/12 08:50:03;;;;;;;13.33;7.47;;;;;;;;;;4913432;29;20204;-75
2023/12/12 08:52:28;;;;;;;14.90;8.27;;;;;;;;;;4915011;29;20177;-74
2023/12/12 08:54:54;;;;;;;13.23;7.33;;;;;;;;;;4919875;29;20316;-77
2023/12/12 08:57:19;;;;;;;10.83;6.30;;;;;;;;;;4912143;29;20249;-75
2023/12/12 08:59:45;;;;;;;16.67;7.63;;;;;;;;;;4911789;29;20266;-74
2023/12/12 09:02:10;;;;;;;16.53;8.07;;;;;;;;;;4910073;29;20209;-74
2023/12/12 09:04:36;;;;;;;13.30;6.10;;;;;;;;;;4910441;29;20180;-74
2023/12/12 09:07:01;;;;;;;15.07;6.60;;;;;;;;;;4910906;29;20238;-75
2023/12/12 09:09:27;;;;;;;13.33;5.93;;;;;;;;;;4910135;29;20183;-77
2023/12/12 09:11:52;;;;;;;11.83;6.37;;;;;;;;;;4910947;29;20181;-75
2023/12/12 09:14:18;;;;;;;12.87;6.30;;;;;;;;;;4911357;29;20182;-77
2023/12/12 09:16:43;;;;;;;11.27;6.53;;;;;;;;;;4908188;29;20187;-77
2023/12/12 09:19:09;;;;;;;16.43;6.83;;;;;;;;;;4905786;29;20266;-75
2023/12/12 09:21:35;;;;;;;11.47;6.23;;;;;;;;;;4911576;29;20187;-74
2023/12/12 09:24:00;;;;;;;12.50;7.40;;;;;;;;;;4912622;29;20214;-75
2023/12/12 09:26:26;;;;;;;14.07;7.50;;;;;;;;;;4911714;29;20231;-74
2023/12/12 09:28:52;;;;;;;10.70;7.13;;;;;;;;;;4913901;29;20170;-75
2023/12/12 09:31:24;;;;;;;11.73;6.43;;;;;;;;;;4916217;29;20178;-75
2023/12/12 09:33:49;;;;;;;9.73;5.17;;;;;;;;;;4912938;29;20189;-74
2023/12/12 09:36:14;;;;;;;12.03;7.97;;;;;;;;;;4910193;29;20186;-75
2023/12/12 09:38:39;;;;;;;9.03;6.63;;;;;;;;;;4916839;29;20189;-75
2023/12/12 09:41:05;;;;;;;9.53;6.07;;;;;;;;;;4913017;29;20202;-74
2023/12/12 09:43:31;;;;;;;8.27;6.03;;;;;;;;;;4912984;29;20206;-75
2023/12/12 09:45:57;;;;;;;8.67;4.50;;;;;;;;;;4914686;29;20188;-76
2023/12/12 09:48:23;;;;;;;7.33;4.40;;;;;;;;;;4915113;29;20267;-78
2023/12/12 09:50:48;;;;;;;7.03;4.70;;;;;;;;;;4910559;29;20187;-75
2023/12/12 09:53:14;;;;;;;6.70;4.60;;;;;;;;;;4915489;29;20206;-76
2023/12/12 09:55:40;;;;;;;9.77;7.47;;;;;;;;;;4918154;29;20230;-75
2023/12/12 09:58:06;;;;;;;7.23;4.63;;;;;;;;;;4913021;29;20230;-76
2023/12/12 10:00:31;;;;;;;9.97;7.37;;;;;;;;;;4911317;29;20215;-75
2023/12/12 10:02:57;;;;;;;9.03;4.40;;;;;;;;;;4914498;29;20203;-75
2023/12/12 10:05:23;;;;;;;8.00;5.10;;;;;;;;;;4913144;29;20171;-75
2023/12/12 10:07:49;;;;;;;10.37;7.93;;;;;;;;;;4913303;29;20309;-75
2023/12/12 10:10:14;;;;;;;7.03;5.07;;;;;;;;;;4906498;29;20231;-75
2023/12/12 10:12:40;;;;;;;6.43;5.00;;;;;;;;;;4914744;29;20477;-76
2023/12/12 10:15:25;;;;;;;6.83;4.90;;;;;;;;;;4909856;29;20244;-76
2023/12/12 10:17:55;;;;;;;5.50;4.27;;;;;;;;;;4908345;29;20189;-75
2023/12/12 10:20:25;;;;;;;8.57;4.70;;;;;;;;;;4922609;29;20178;-76
2023/12/12 10:22:50;;;;;;;7.60;5.40;;;;;;;;;;4912342;29;20200;-76
2023/12/12 10:25:16;;;;;;;6.87;5.17;;;;;;;;;;4908196;29;20179;-75
2023/12/12 10:27:42;;;;;;;14.07;9.03;;;;;;;;;;4908274;29;20170;-76
2023/12/12 10:30:08;;;;;;;11.70;6.67;;;;;;;;;;4907056;29;20259;-76
2023/12/12 10:32:36;;;;;;;7.27;5.27;;;;;;;;;;4907554;29;20273;-76
2023/12/12 10:35:01;;;;;;;7.43;5.23;;;;;;;;;;4911503;29;20187;-76
2023/12/12 10:37:26;;;;;;;4.37;3.63;;;;;;;;;;4895712;29;20183;-76
2023/12/12 10:39:52;;;;;;;3.77;3.10;;;;;;;;;;4911113;29;20183;-75
2023/12/12 10:42:17;;;;;;;11.53;6.50;;;;;;;;;;4904620;29;20203;-75
2023/12/12 10:44:45;;;;;;;6.97;4.47;;;;;;;;;;4906163;29;20178;-76
2023/12/12 10:47:13;;;;;;;4.80;4.40;;;;;;;;;;4904357;29;20542;-75
2023/12/12 10:49:42;;;;;;;5.87;4.00;;;;;;;;;;4910033;29;20178;-76
2023/12/12 10:52:08;;;;;;;8.87;6.43;;;;;;;;;;4905906;29;20186;-75
2023/12/12 10:54:35;;;;;;;5.90;4.47;;;;;;;;;;4908579;29;20289;-76
2023/12/12 10:57:01;;;;;;;9.23;5.53;;;;;;;;;;4906672;29;20215;-77
2023/12/12 10:59:27;;;;;;;4.57;3.47;;;;;;;;;;4910647;29;20175;-72
2023/12/12 11:01:52;;;;;;;3.83;3.37;;;;;;;;;;4908230;29;20171;-72
2023/12/12 11:04:18;;;;;;;4.07;3.00;;;;;;;;;;4901917;29;20173;-72
2023/12/12 11:06:43;;;;;;;8.13;6.90;;;;;;;;;;4901942;29;20218;-72
2023/12/12 11:09:09;;;;;;;3.40;3.10;;;;;;;;;;4898851;29;20274;-72
2023/12/12 11:11:35;;;;;;;6.20;5.60;;;;;;;;;;4905557;29;20209;-72
2023/12/12 11:14:01;;;;;;;5.13;3.83;;;;;;;;;;4904984;29;20213;-72
2023/12/12 11:16:27;;;;;;;4.47;2.83;;;;;;;;;;4905549;29;20268;-72
2023/12/12 11:18:54;;;;;;;5.23;4.37;;;;;;;;;;4911143;29;20199;-68
2023/12/12 11:21:46;;;;;;;4.93;4.53;;;;;;;;;;4915933;29;20348;-68
2023/12/12 11:24:12;;;;;;;4.07;3.67;;;;;;;;;;4908552;29;20218;-68
2023/12/12 11:26:38;;;;;;;3.50;2.70;;;;;;;;;;4906760;29;20181;-73
2023/12/12 11:29:06;;;;;;;5.10;3.40;;;;;;;;;;4913183;29;20183;-67
2023/12/12 11:31:35;;;;;;;5.17;4.03;;;;;;;;;;4906962;29;20265;-71
2023/12/12 11:34:04;;;;;;;5.63;3.80;;;;;;;;;;4904804;29;20167;-71
2023/12/12 11:36:49;;;;;;;7.73;5.63;;;;;;;;;;4906466;29;20184;-71
2023/12/12 11:39:21;;;;;;;7.47;4.90;;;;;;;;;;4908281;29;20295;-71
2023/12/12 11:41:47;;;;;;;15.73;8.93;;;;;;;;;;4913706;29;20187;-71
2023/12/12 11:44:12;;;;;;;29.13;15.13;;;;;;;;;;4911093;29;20205;-71
2023/12/12 11:46:37;;;;;;;44.30;21.37;;;;;;;;;;4913048;29;20175;-72
2023/12/12 11:49:21;;;;;;;10.10;6.03;;;;;;;;;;4909719;29;20182;-71
2023/12/12 11:51:49;;;;;;;10.90;6.43;;;;;;;;;;4908397;29;20186;-72
2023/12/12 11:54:21;;;;;;;14.07;10.30;;;;;;;;;;4911038;29;20268;-71
2023/12/12 11:56:47;;;;;;;7.57;5.60;;;;;;;;;;4907151;29;20179;-71
2023/12/12 11:59:13;;;;;;;5.50;4.20;;;;;;;;;;4909467;29;20195;-71
2023/12/12 12:01:38;;;;;;;18.67;12.47;;;;;;;;;;4904643;29;20524;-71
2023/12/12 12:04:03;;;;;;;9.20;6.47;;;;;;;;;;4910763;29;20198;-71
2023/12/12 12:06:28;;;;;;;7.13;5.20;;;;;;;;;;4909124;29;20189;-71
2023/12/12 12:08:54;;;;;;;7.70;6.07;;;;;;;;;;4914444;29;20219;-70
2023/12/12 12:11:19;;;;;;;12.37;6.80;;;;;;;;;;4914844;29;20179;-71
2023/12/12 12:13:44;;;;;;;32.77;17.57;;;;;;;;;;4913725;29;20602;-72
2023/12/12 12:16:10;;;;;;;23.87;18.60;;;;;;;;;;4910713;29;20269;-72
2023/12/12 12:18:36;;;;;;;13.10;10.50;;;;;;;;;;4911489;29;20167;-72
2023/12/12 12:21:03;;;;;;;11.27;8.80;;;;;;;;;;4912141;29;20331;-71
2023/12/12 12:23:29;;;;;;;9.13;6.37;;;;;;;;;;4908646;29;20206;-71
2023/12/12 12:26:00;;;;;;;9.40;6.50;;;;;;;;;;4908462;29;20191;-71
2023/12/12 12:28:32;;;;;;;6.40;4.60;;;;;;;;;;4914691;29;20171;-72
2023/12/12 12:31:00;;;;;;;6.50;4.80;;;;;;;;;;4912241;29;20465;-72
2023/12/12 12:33:32;;;;;;;5.20;4.37;;;;;;;;;;4908352;29;20254;-72
2023/12/12 12:35:57;;;;;;;4.00;3.47;;;;;;;;;;4915492;29;20183;-72
2023/12/12 12:38:23;;;;;;;3.50;3.20;;;;;;;;;;4914256;29;20187;-71
2023/12/12 12:40:49;;;;;;;4.40;4.00;;;;;;;;;;4913069;29;20182;-71
2023/12/12 12:43:14;;;;;;;15.77;12.73;;;;;;;;;;4914873;29;20203;-72
2023/12/12 12:45:40;;;;;;;3.50;2.90;;;;;;;;;;4910032;29;20267;-71
2023/12/12 12:48:05;;;;;;;3.20;2.70;;;;;;;;;;4917066;29;20459;-71
2023/12/12 12:50:30;;;;;;;4.07;3.10;;;;;;;;;;4914651;29;20209;-71
2023/12/12 12:52:58;;;;;;;2.63;2.20;;;;;;;;;;4915503;29;20217;-71
2023/12/12 12:55:23;;;;;;;2.13;1.77;;;;;;;;;;4916637;29;20257;-72
2023/12/12 12:57:48;;;;;;;2.70;1.83;;;;;;;;;;4914887;29;20179;-72
2023/12/12 13:00:14;;;;;;;2.63;2.40;;;;;;;;;;4910212;29;20187;-72
2023/12/12 13:02:39;;;;;;;1.50;1.40;;;;;;;;;;4912896;29;20191;-71
2023/12/12 13:05:04;;;;;;;1.23;1.13;;;;;;;;;;4910974;29;20176;-72
2023/12/12 13:07:32;;;;;;;3.00;1.37;;;;;;;;;;4916151;29;20175;-72
2023/12/12 13:09:58;;;;;;;1.30;1.20;;;;;;;;;;4915233;29;20179;-71
2023/12/12 13:12:24;;;;;;;2.90;1.87;;;;;;;;;;4915899;29;20185;-71
2023/12/12 13:14:49;;;;;;;1.63;1.27;;;;;;;;;;4916277;29;20197;-72
2023/12/12 13:17:14;;;;;;;1.17;0.90;;;;;;;;;;4907675;29;20207;-72
2023/12/12 13:19:39;;;;;;;0.97;0.97;;;;;;;;;;4928034;29;20188;-71
2023/12/12 13:22:04;;;;;;;1.37;1.07;;;;;;;;;;4912310;29;20187;-72
2023/12/12 13:24:30;;;;;;;2.00;1.60;;;;;;;;;;4912548;29;20183;-71
2023/12/12 13:26:55;;;;;;;5.93;3.77;;;;;;;;;;4911000;29;20183;-71
2023/12/12 13:29:20;;;;;;;2.07;1.40;;;;;;;;;;4913712;29;20195;-72
2023/12/12 13:31:45;;;;;;;1.40;1.30;;;;;;;;;;4914269;29;20216;-71
2023/12/12 13:34:11;;;;;;;2.77;2.10;;;;;;;;;;4911438;29;20193;-72
2023/12/12 13:36:37;;;;;;;9.10;6.60;;;;;;;;;;4912330;29;20185;-71
2023/12/12 13:39:03;;;;;;;4.10;3.00;;;;;;;;;;4915983;29;20179;-72
2023/12/12 13:41:29;;;;;;;4.27;3.87;;;;;;;;;;4916619;29;20174;-71
2023/12/12 13:43:54;;;;;;;71.57;42.37;;;;;;;;;;4907848;29;20407;-71
2023/12/12 13:46:19;;;;;;;94.97;51.13;;;;;;;;;;4912400;29;20286;-71
2023/12/12 13:48:45;;;;;;;62.77;33.43;;;;;;;;;;4914421;29;20266;-71
2023/12/12 13:51:10;;;;;;;13.30;8.10;;;;;;;;;;4914213;29;20190;-71
2023/12/12 13:53:36;;;;;;;25.93;15.83;;;;;;;;;;4913305;29;20296;-72
2023/12/12 13:56:01;;;;;;;37.90;26.57;;;;;;;;;;4909802;29;20192;-72
2023/12/12 13:58:26;;;;;;;23.33;18.93;;;;;;;;;;4915331;29;20178;-71
2023/12/12 14:00:51;;;;;;;7.13;6.43;;;;;;;;;;4917795;29;20214;-72
2023/12/12 14:03:18;;;;;;;13.63;9.17;;;;;;;;;;4915983;29;20245;-72
2023/12/12 14:05:43;;;;;;;6.53;4.93;;;;;;;;;;4915392;29;20183;-72
2023/12/12 14:08:08;;;;;;;5.60;5.10;;;;;;;;;;4910943;29;20179;-71
2023/12/12 14:10:35;;;;;;;3.87;3.47;;;;;;;;;;4911104;29;20208;-71
2023/12/12 14:13:00;;;;;;;3.10;2.87;;;;;;;;;;4908351;29;20179;-71
2023/12/12 14:15:29;;;;;;;8.20;5.63;;;;;;;;;;4907840;29;20189;-72
2023/12/12 14:17:54;;;;;;;5.53;5.03;;;;;;;;;;4927048;29;20226;-71
2023/12/12 14:20:19;;;;;;;2.40;2.20;;;;;;;;;;4902544;29;20182;-71
2023/12/12 14:22:45;;;;;;;2.53;2.23;;;;;;;;;;4910087;29;20207;-72
2023/12/12 14:25:10;;;;;;;1.27;1.17;;;;;;;;;;4907698;29;20191;-72
2023/12/12 14:27:35;;;;;;;2.23;1.70;;;;;;;;;;4914081;29;20182;-72
2023/12/12 14:30:00;;;;;;;0.67;0.67;;;;;;;;;;4910897;29;20172;-71
2023/12/12 14:32:26;;;;;;;0.30;0.30;;;;;;;;;;4916741;29;20231;-71